Main page
METAR-TAF:

METAR-TAF

Airports :

Stuttgart Airport

Stuttgart, Germany

latitude: 48-41N, longitude: 009-13E, elevation: 396 m

Current weather observation

The report was made 56 minutes ago, at 00:20 UTC
Wind 2 kt from the Northeast
Temperature 18°C
Humidity 68%
Pressure 1015 hPa
Visibility 10 km or more
no clouds below 1500 m and no cumulonimbus

METAR: EDDS 250020Z AUTO 05002KT CAVOK 18/12 Q1015

Time: 03:16 (01:16 UTC)

Forecast

The report was made 2 hours and 16 minutes ago, at 23:00 UTC
Forecast valid from 25 at 00 UTC to 25 at 24 UTC
Wind 3 kt from variable directions
Visibility 10 km or more
no clouds below 1500 m and no cumulonimbus
Becoming
from 25 at 06 UTC to 25 at 08 UTC
Wind 7 kt from the Northeast
Becoming
from 25 at 19 UTC to 25 at 22 UTC
Wind 3 kt from variable directions

TAF: EDDS 242300Z 2500/2524 VRB03KT CAVOK BECMG 2506/2508 05007KT BECMG 2519/2522 VRB03KT

Weather observations and forecasts of more than 4000 airports (METAR and TAF reports).

The available stations are represented by yellow and red dots on the map.

Hover mouse over dot to see the name of the station.

Then click to see weather observations and forecasts.

To change the map : click on the green buttons with a black cross to zoom in, on the green button with a dash to zoom out, or on the green arrows for adjacent maps.


METAR-TAF: